Time;durP1;ratioP1;P1;durP2;ratioP2;P2;SDS_P1;SDS_P2;PMS_P1;PMS_P2;Temp;Humidity;BMP_temperature;BMP_pressure;BME280_temperature;BME280_humidity;BME280_pressure;Samples;Min_cycle;Max_cycle;Signal;HPM_P1;HPM_P2
2022/12/13 00:00:18;;;;;;;47.83;26.80;;;1.40;82.00;;;;;;5035108;28;20022;-75
2022/12/13 00:02:45;;;;;;;45.88;26.02;;;1.40;81.90;;;;;;5047286;28;20487;-73
2022/12/13 00:05:11;;;;;;;40.90;22.40;;;1.40;81.90;;;;;;5043244;28;20115;-73
2022/12/13 00:07:37;;;;;;;46.97;24.48;;;1.40;82.00;;;;;;5048084;28;20040;-74
2022/12/13 00:10:04;;;;;;;46.35;25.33;;;1.40;82.00;;;;;;5027629;28;20021;-74
2022/12/13 00:12:30;;;;;;;43.75;22.92;;;1.40;82.10;;;;;;5047680;28;20021;-74
2022/12/13 00:14:56;;;;;;;45.22;23.05;;;1.30;82.10;;;;;;5045384;28;20513;-75
2022/12/13 00:17:22;;;;;;;40.95;22.73;;;1.30;82.10;;;;;;5046665;28;20029;-73
2022/12/13 00:19:48;;;;;;;46.50;24.58;;;1.30;82.20;;;;;;5042780;28;20036;-74
2022/12/13 00:22:15;;;;;;;47.08;23.73;;;1.30;83.00;;;;;;5046623;28;20692;-73
2022/12/13 00:24:42;;;;;;;44.33;24.30;;;1.30;82.40;;;;;;5046498;28;20052;-74
2022/12/13 00:27:07;;;;;;;44.58;25.42;;;1.30;82.60;;;;;;5041986;28;20025;-75
2022/12/13 00:29:33;;;;;;;49.90;25.25;;;1.30;82.60;;;;;;5044635;28;20530;-74
2022/12/13 00:31:59;;;;;;;43.05;24.02;;;1.30;83.10;;;;;;5038207;28;20025;-73
2022/12/13 00:34:25;;;;;;;44.35;24.40;;;1.30;82.90;;;;;;5046823;28;20032;-74
2022/12/13 00:36:53;;;;;;;44.67;24.42;;;1.30;83.00;;;;;;5042723;28;20025;-76
2022/12/13 00:39:18;;;;;;;49.35;24.88;;;1.30;83.20;;;;;;5017567;28;20029;-74
2022/12/13 00:41:44;;;;;;;41.20;23.20;;;1.30;83.10;;;;;;5019274;28;20028;-74
2022/12/13 00:44:11;;;;;;;46.00;24.15;;;1.30;82.90;;;;;;5029524;28;20043;-74
2022/12/13 00:46:38;;;;;;;47.15;25.80;;;1.20;82.80;;;;;;5045483;28;20060;-74
2022/12/13 00:49:04;;;;;;;44.95;25.05;;;1.20;83.20;;;;;;5030204;28;20025;-74
2022/12/13 00:51:33;;;;;;;51.15;26.60;;;1.20;83.60;;;;;;5045755;28;20029;-74
2022/12/13 00:54:00;;;;;;;48.03;25.67;;;1.20;83.80;;;;;;5046050;28;20028;-74
2022/12/13 00:56:28;;;;;;;46.83;26.20;;;1.20;83.80;;;;;;5046378;28;20024;-74
2022/12/13 00:58:55;;;;;;;44.45;25.23;;;1.20;83.40;;;;;;5042196;28;20045;-74
2022/12/13 01:01:27;;;;;;;52.95;25.65;;;1.20;83.30;;;;;;5018102;28;20025;-75
2022/12/13 01:03:55;;;;;;;53.08;24.80;;;1.20;83.50;;;;;;5046648;28;20025;-73
2022/12/13 01:06:42;;;;;;;50.38;26.15;;;1.10;83.40;;;;;;5043135;28;20021;-75
2022/12/13 01:09:16;;;;;;;43.78;24.70;;;1.10;83.40;;;;;;5024951;28;20025;-74
2022/12/13 01:11:42;;;;;;;43.53;25.42;;;1.10;83.30;;;;;;5045373;28;20059;-73
2022/12/13 01:14:08;;;;;;;46.10;24.52;;;1.10;83.40;;;;;;5051448;28;20403;-74
2022/12/13 01:16:34;;;;;;;45.90;24.52;;;1.10;83.50;;;;;;5047054;28;20018;-73
2022/12/13 01:19:00;;;;;;;48.28;25.52;;;1.10;83.50;;;;;;5048943;28;20040;-74
2022/12/13 01:21:27;;;;;;;59.05;25.40;;;1.10;83.60;;;;;;5049196;28;20136;-75
2022/12/13 01:23:54;;;;;;;49.17;23.70;;;1.10;83.50;;;;;;5049932;28;20029;-74
2022/12/13 01:26:21;;;;;;;41.58;23.02;;;1.10;84.20;;;;;;5036055;28;20032;-74
2022/12/13 01:28:47;;;;;;;46.50;25.67;;;1.10;83.40;;;;;;5050450;28;20021;-74
2022/12/13 01:31:17;;;;;;;45.28;23.70;;;1.10;83.20;;;;;;5037675;28;20033;-74
2022/12/13 01:33:43;;;;;;;42.58;23.13;;;1.00;83.20;;;;;;5040960;28;20467;-74
2022/12/13 01:36:17;;;;;;;40.15;22.52;;;1.00;83.50;;;;;;5051102;28;20025;-74
2022/12/13 01:38:43;;;;;;;43.88;23.25;;;1.00;83.60;;;;;;5028100;28;20449;-75
2022/12/13 01:41:14;;;;;;;47.95;25.67;;;1.00;83.60;;;;;;5051275;28;20021;-73
2022/12/13 01:43:40;;;;;;;44.38;23.30;;;1.00;83.40;;;;;;5037603;28;20029;-74
2022/12/13 01:46:06;;;;;;;44.65;23.58;;;1.00;83.20;;;;;;5050131;28;20021;-74
2022/12/13 01:48:38;;;;;;;45.72;24.17;;;1.00;83.20;;;;;;5047550;28;20021;-73
2022/12/13 01:51:08;;;;;;;47.75;24.10;;;0.90;83.20;;;;;;5049657;28;20028;-74
2022/12/13 01:53:38;;;;;;;44.22;23.80;;;1.00;83.60;;;;;;5046767;28;20471;-74
2022/12/13 01:56:09;;;;;;;44.17;24.57;;;1.00;83.60;;;;;;5034863;28;20016;-74
2022/12/13 01:58:37;;;;;;;46.70;24.08;;;0.90;83.50;;;;;;5047758;28;20035;-74
2022/12/13 02:01:03;;;;;;;48.83;24.77;;;0.90;83.50;;;;;;5048646;28;20029;-73
2022/12/13 02:03:28;;;;;;;42.47;23.50;;;0.90;83.50;;;;;;5043342;28;20028;-74
2022/12/13 02:06:18;;;;;;;48.95;24.65;;;0.90;83.60;;;;;;5029039;28;20024;-74
2022/12/13 02:08:45;;;;;;;44.22;22.95;;;0.90;83.40;;;;;;5042612;28;20024;-74
2022/12/13 02:11:12;;;;;;;45.53;24.33;;;0.90;83.20;;;;;;5050650;28;20025;-74
2022/12/13 02:13:39;;;;;;;48.97;24.10;;;0.90;83.10;;;;;;5044460;28;20395;-75
2022/12/13 02:16:26;;;;;;;45.63;23.75;;;0.90;83.20;;;;;;5042476;28;20040;-74
2022/12/13 02:19:30;;;;;;;50.40;24.55;;;0.90;83.50;;;;;;5042217;28;20492;-74
2022/12/13 02:22:21;;;;;;;47.63;24.90;;;0.80;83.40;;;;;;5029231;28;20029;-74
2022/12/13 02:25:15;;;;;;;48.80;27.30;;;0.80;84.00;;;;;;5044936;28;20506;-74
2022/12/13 02:27:40;;;;;;;49.22;25.13;;;0.90;84.60;;;;;;5035909;28;20029;-74
2022/12/13 02:30:21;;;;;;;48.10;26.27;;;0.90;84.70;;;;;;5036940;28;20029;-74
2022/12/13 02:33:08;;;;;;;47.53;26.00;;;0.80;84.70;;;;;;5039919;28;20094;-74
2022/12/13 02:35:58;;;;;;;47.83;26.25;;;0.80;84.80;;;;;;5037039;28;20415;-74
2022/12/13 02:38:38;;;;;;;48.42;25.08;;;0.80;85.10;;;;;;5028328;28;20098;-74
2022/12/13 02:41:33;;;;;;;48.83;25.10;;;0.80;85.30;;;;;;5044757;28;20052;-74
2022/12/13 02:44:11;;;;;;;48.55;25.52;;;0.80;85.40;;;;;;5043258;28;20465;-74
2022/12/13 02:46:47;;;;;;;49.58;26.58;;;0.80;85.20;;;;;;5048202;28;20128;-72
2022/12/13 02:49:15;;;;;;;45.10;25.10;;;0.80;85.30;;;;;;5028930;28;20116;-74
2022/12/13 02:51:42;;;;;;;47.63;26.13;;;0.80;85.50;;;;;;5048163;28;20025;-74
2022/12/13 02:54:08;;;;;;;49.38;25.38;;;0.80;85.50;;;;;;5048303;28;20027;-75
2022/12/13 02:56:34;;;;;;;43.38;26.10;;;0.80;85.30;;;;;;5044949;28;20013;-76
2022/12/13 02:59:03;;;;;;;51.40;25.85;;;0.80;85.10;;;;;;5035353;28;20550;-73
2022/12/13 03:01:51;;;;;;;49.03;25.23;;;0.80;85.00;;;;;;5038438;28;20036;-75
2022/12/13 03:06:28;;;;;;;47.38;25.80;;;0.80;84.80;;;;;;5047120;28;20372;-73
2022/12/13 03:08:09;;;;;;;50.70;27.50;;;0.70;84.80;;;;;;5039108;28;20037;-74
2022/12/13 03:10:46;;;;;;;52.50;26.23;;;0.70;85.20;;;;;;5004442;28;20569;-73
2022/12/13 03:13:37;;;;;;;55.22;25.23;;;0.70;85.10;;;;;;5043271;28;20086;-74
2022/12/13 03:16:25;;;;;;;52.72;25.05;;;0.70;85.10;;;;;;5043866;28;20044;-74
2022/12/13 03:18:53;;;;;;;44.13;24.77;;;0.70;85.00;;;;;;5036592;28;20040;-74
2022/12/13 03:21:19;;;;;;;48.75;26.13;;;0.70;85.10;;;;;;5045916;28;20067;-74
2022/12/13 03:23:46;;;;;;;51.05;25.45;;;0.70;85.20;;;;;;5048131;28;20056;-74
2022/12/13 03:26:15;;;;;;;49.65;26.70;;;0.60;85.40;;;;;;5043518;28;20021;-74
2022/12/13 03:28:47;;;;;;;54.83;28.15;;;0.60;85.50;;;;;;5047791;28;20056;-73
2022/12/13 03:31:13;;;;;;;51.95;25.27;;;0.60;85.60;;;;;;5044291;28;20067;-75
2022/12/13 03:33:39;;;;;;;47.80;25.85;;;0.70;85.80;;;;;;5047606;28;20056;-73
2022/12/13 03:36:06;;;;;;;50.20;25.70;;;0.60;85.70;;;;;;5045562;28;20021;-74
2022/12/13 03:38:31;;;;;;;44.10;25.55;;;0.60;85.40;;;;;;5041680;28;20056;-74
2022/12/13 03:41:01;;;;;;;45.17;25.67;;;0.60;85.10;;;;;;5015957;28;20515;-74
2022/12/13 03:43:27;;;;;;;49.22;26.13;;;0.60;84.80;;;;;;5045737;28;20032;-74
2022/12/13 03:45:53;;;;;;;51.97;28.08;;;0.60;84.50;;;;;;5046041;28;20043;-74
2022/12/13 03:48:21;;;;;;;49.08;27.95;;;0.60;84.40;;;;;;5044118;28;20105;-75
2022/12/13 03:50:46;;;;;;;47.72;27.00;;;0.60;84.30;;;;;;5048225;28;20025;-74
2022/12/13 03:53:12;;;;;;;46.50;26.20;;;0.50;84.40;;;;;;5025530;28;20483;-74
2022/12/13 03:55:39;;;;;;;47.75;24.70;;;0.50;84.40;;;;;;5047207;28;20024;-74
2022/12/13 03:58:05;;;;;;;51.05;27.40;;;0.50;84.30;;;;;;5044124;28;20033;-74
2022/12/13 04:00:30;;;;;;;48.80;25.30;;;0.50;84.40;;;;;;5046566;28;20025;-76
2022/12/13 04:02:56;;;;;;;46.90;25.45;;;0.50;84.60;;;;;;5034844;28;20028;-73
2022/12/13 04:05:22;;;;;;;50.58;25.48;;;0.50;84.60;;;;;;5045532;28;20166;-74
2022/12/13 04:07:47;;;;;;;52.00;26.80;;;0.50;84.50;;;;;;5047694;28;20028;-73
2022/12/13 04:10:13;;;;;;;52.95;27.70;;;0.50;85.10;;;;;;5031038;28;20021;-74
2022/12/13 04:15:23;;;;;;;50.35;26.67;;;0.50;85.00;;;;;;5034928;28;20095;-74
2022/12/13 04:17:49;;;;;;;48.55;26.05;;;0.50;85.10;;;;;;5042647;28;20109;-74
2022/12/13 04:20:14;;;;;;;48.25;26.63;;;0.50;85.00;;;;;;5041268;28;20040;-75
2022/12/13 04:22:41;;;;;;;45.67;25.42;;;0.50;84.80;;;;;;5031426;28;20032;-73
2022/12/13 04:25:07;;;;;;;48.60;25.88;;;0.50;84.60;;;;;;5041817;28;20036;-74
2022/12/13 04:27:33;;;;;;;46.13;26.40;;;0.50;84.70;;;;;;5046780;28;20013;-75
2022/12/13 04:29:58;;;;;;;50.13;26.27;;;0.50;84.80;;;;;;5042317;28;20029;-75
2022/12/13 04:32:24;;;;;;;53.97;29.73;;;0.50;84.90;;;;;;5034329;28;20529;-74
2022/12/13 04:34:50;;;;;;;49.65;27.27;;;0.50;84.80;;;;;;5043320;28;20032;-74
2022/12/13 04:37:15;;;;;;;51.08;26.70;;;0.50;85.10;;;;;;5047769;28;20483;-74
2022/12/13 04:39:41;;;;;;;47.78;25.85;;;0.50;85.90;;;;;;5043882;28;20479;-74
2022/12/13 04:42:06;;;;;;;54.30;26.33;;;0.50;85.40;;;;;;5047806;28;20135;-74
2022/12/13 04:44:32;;;;;;;59.40;27.35;;;0.50;85.30;;;;;;5038121;28;20033;-73
2022/12/13 04:46:58;;;;;;;52.60;27.65;;;0.40;85.20;;;;;;5038835;28;20036;-74
2022/12/13 04:49:23;;;;;;;51.90;27.48;;;0.40;85.30;;;;;;5044010;28;20421;-73
2022/12/13 04:51:49;;;;;;;50.30;26.70;;;0.40;85.40;;;;;;5049562;28;20028;-74
2022/12/13 04:54:15;;;;;;;55.30;28.70;;;0.40;85.60;;;;;;5046829;28;20087;-74
2022/12/13 04:56:40;;;;;;;53.45;27.50;;;0.40;85.70;;;;;;5052102;28;20096;-75
2022/12/13 04:59:06;;;;;;;55.47;29.52;;;0.40;85.70;;;;;;5049492;28;20112;-74
2022/12/13 05:01:32;;;;;;;52.00;26.00;;;0.40;85.70;;;;;;5052462;28;20079;-75
2022/12/13 05:03:58;;;;;;;62.22;28.50;;;0.40;85.80;;;;;;5048753;28;20025;-73
2022/12/13 05:06:24;;;;;;;50.42;26.13;;;0.40;85.80;;;;;;5031623;28;20033;-75
2022/12/13 05:08:50;;;;;;;52.05;27.80;;;0.40;85.50;;;;;;5045471;28;20200;-74
2022/12/13 05:11:16;;;;;;;52.38;27.70;;;0.40;85.40;;;;;;5042119;28;20099;-74
2022/12/13 05:13:41;;;;;;;58.17;29.20;;;0.40;85.40;;;;;;5050217;28;20053;-75
2022/12/13 05:16:08;;;;;;;53.42;27.83;;;0.30;85.30;;;;;;5043883;28;20024;-75
2022/12/13 05:18:35;;;;;;;55.60;26.95;;;0.40;85.30;;;;;;5032412;28;20029;-73
2022/12/13 05:21:05;;;;;;;51.25;27.60;;;0.30;85.30;;;;;;5039498;28;20108;-73
2022/12/13 05:23:31;;;;;;;56.05;28.13;;;0.30;85.30;;;;;;5050568;28;20036;-73
2022/12/13 05:25:57;;;;;;;56.70;28.25;;;0.30;85.40;;;;;;5046163;28;20032;-75
2022/12/13 05:28:25;;;;;;;52.92;26.60;;;0.30;86.10;;;;;;5049159;28;20037;-74
2022/12/13 05:30:51;;;;;;;54.08;26.27;;;0.30;85.60;;;;;;5046991;28;20024;-75
2022/12/13 05:33:17;;;;;;;56.35;28.95;;;0.30;85.80;;;;;;5049110;28;20029;-74
2022/12/13 05:35:43;;;;;;;50.65;27.15;;;0.30;85.70;;;;;;5048848;28;20498;-73
2022/12/13 05:38:08;;;;;;;54.15;28.65;;;0.30;85.60;;;;;;5050302;28;20506;-74
2022/12/13 05:40:34;;;;;;;55.22;28.17;;;0.30;85.50;;;;;;5045823;28;20021;-74
2022/12/13 05:43:00;;;;;;;56.28;28.45;;;0.30;85.50;;;;;;5040498;28;20029;-74
2022/12/13 05:45:26;;;;;;;53.38;27.52;;;0.30;85.40;;;;;;5047741;28;20100;-74
2022/12/13 05:47:52;;;;;;;50.65;28.38;;;0.30;85.50;;;;;;5046024;28;20059;-74
2022/12/13 05:50:18;;;;;;;48.25;26.63;;;0.30;85.40;;;;;;5047129;28;20017;-76
2022/12/13 05:52:44;;;;;;;54.17;27.73;;;0.30;85.40;;;;;;5047626;28;20057;-74
2022/12/13 05:55:11;;;;;;;49.38;28.30;;;0.30;85.40;;;;;;5049161;28;20021;-75
2022/12/13 05:57:37;;;;;;;49.80;28.15;;;0.30;85.30;;;;;;5042958;28;20392;-74
2022/12/13 06:00:06;;;;;;;57.50;28.20;;;0.30;85.30;;;;;;5049672;28;20448;-75
2022/12/13 06:02:40;;;;;;;56.25;27.35;;;0.30;85.30;;;;;;5030159;28;20017;-74
2022/12/13 06:05:06;;;;;;;57.15;28.27;;;0.20;85.30;;;;;;5050479;28;20147;-75
2022/12/13 06:07:32;;;;;;;56.42;30.52;;;0.30;85.30;;;;;;5041428;28;20025;-74
2022/12/13 06:09:58;;;;;;;55.17;28.50;;;0.30;85.30;;;;;;5039230;28;20018;-73
2022/12/13 06:12:23;;;;;;;57.17;29.75;;;0.20;85.40;;;;;;5045847;28;20017;-73
2022/12/13 06:14:49;;;;;;;56.17;28.55;;;0.20;85.60;;;;;;5050088;28;20018;-74
2022/12/13 06:17:15;;;;;;;51.13;27.13;;;0.20;85.60;;;;;;5045352;28;20532;-74
2022/12/13 06:19:41;;;;;;;51.47;25.55;;;0.20;85.70;;;;;;5049133;28;20029;-73
2022/12/13 06:22:06;;;;;;;53.17;27.77;;;0.20;85.70;;;;;;5047231;28;20545;-74
2022/12/13 06:24:32;;;;;;;53.42;28.17;;;0.20;85.70;;;;;;5039667;28;20021;-73
2022/12/13 06:26:59;;;;;;;60.45;28.63;;;0.20;85.60;;;;;;5044018;28;20063;-74
2022/12/13 06:29:25;;;;;;;49.35;27.50;;;0.20;85.60;;;;;;5048285;28;20025;-74
2022/12/13 06:31:57;;;;;;;57.67;29.23;;;0.20;85.60;;;;;;5048682;28;20490;-74
2022/12/13 06:34:23;;;;;;;53.03;28.17;;;0.20;85.60;;;;;;5038273;28;20038;-74
2022/12/13 06:36:49;;;;;;;54.78;28.58;;;0.20;85.70;;;;;;5030652;28;20491;-73
2022/12/13 06:39:15;;;;;;;53.33;29.35;;;0.20;85.70;;;;;;5042153;28;20064;-73
2022/12/13 06:41:41;;;;;;;50.85;28.10;;;0.10;85.60;;;;;;5050586;28;20103;-72
2022/12/13 06:44:07;;;;;;;56.28;30.00;;;0.20;85.70;;;;;;5016184;28;20013;-74
2022/12/13 06:46:33;;;;;;;58.58;30.00;;;0.20;85.80;;;;;;5038309;28;20111;-74
2022/12/13 06:49:00;;;;;;;57.88;30.30;;;0.20;85.80;;;;;;5035645;28;20022;-74
2022/12/13 06:51:26;;;;;;;57.50;29.63;;;0.20;85.80;;;;;;5049040;28;20029;-74
2022/12/13 06:53:52;;;;;;;55.00;29.48;;;0.20;85.80;;;;;;5036327;28;20060;-75
2022/12/13 06:56:18;;;;;;;51.80;30.90;;;0.20;85.80;;;;;;5046140;28;20057;-74
2022/12/13 06:58:43;;;;;;;57.70;28.25;;;0.10;85.60;;;;;;5036129;28;20038;-73
2022/12/13 07:01:12;;;;;;;57.00;29.52;;;0.10;85.80;;;;;;5047717;28;20021;-73
2022/12/13 07:03:39;;;;;;;57.25;30.05;;;0.10;85.90;;;;;;5038363;28;20025;-73
2022/12/13 07:06:08;;;;;;;63.92;30.60;;;0.10;85.80;;;;;;5030611;28;20071;-74
2022/12/13 07:08:34;;;;;;;66.45;32.22;;;0.10;85.80;;;;;;5043284;28;20048;-72
2022/12/13 07:11:01;;;;;;;64.93;31.65;;;0.10;86.10;;;;;;5038999;28;20095;-73
2022/12/13 07:13:27;;;;;;;61.83;30.27;;;0.10;86.80;;;;;;5042588;28;20139;-73
2022/12/13 07:15:53;;;;;;;65.35;31.85;;;0.10;86.80;;;;;;5020433;28;20322;-72
2022/12/13 07:18:18;;;;;;;59.60;31.23;;;0.10;86.60;;;;;;5045653;28;20033;-75
2022/12/13 07:20:44;;;;;;;62.00;31.42;;;0.10;86.50;;;;;;5013316;28;20028;-74
2022/12/13 07:23:10;;;;;;;54.97;30.67;;;0.10;86.40;;;;;;5029183;28;20040;-73
2022/12/13 07:25:37;;;;;;;63.55;31.75;;;0.10;86.40;;;;;;5046708;28;20024;-74
2022/12/13 07:28:06;;;;;;;62.20;33.05;;;0.10;86.20;;;;;;5047142;28;20899;-76
2022/12/13 07:30:33;;;;;;;59.00;30.65;;;0.10;86.20;;;;;;5045748;28;20021;-74
2022/12/13 07:33:01;;;;;;;55.10;30.48;;;0.10;86.20;;;;;;5024943;28;20040;-75
2022/12/13 07:35:27;;;;;;;58.83;30.70;;;0.10;86.20;;;;;;5035242;28;20024;-74
2022/12/13 07:37:53;;;;;;;54.33;29.65;;;0.10;86.10;;;;;;5037506;28;20082;-75
2022/12/13 07:40:19;;;;;;;60.50;32.67;;;0.10;86.00;;;;;;5041136;28;20025;-74
2022/12/13 07:42:55;;;;;;;59.40;31.25;;;0.10;86.00;;;;;;5021340;28;20394;-73
2022/12/13 07:45:21;;;;;;;63.20;31.38;;;0.10;85.90;;;;;;5038685;28;20091;-73
2022/12/13 07:47:48;;;;;;;62.83;32.47;;;0.10;86.40;;;;;;5024961;28;20033;-74
2022/12/13 07:50:14;;;;;;;54.30;30.30;;;0.10;85.70;;;;;;5033344;28;20014;-74
2022/12/13 07:52:41;;;;;;;61.92;31.10;;;0.10;85.60;;;;;;5020477;28;20050;-73
2022/12/13 07:55:07;;;;;;;53.83;29.40;;;0.10;85.60;;;;;;5036170;28;20037;-75
2022/12/13 07:57:33;;;;;;;60.95;31.65;;;0.10;85.80;;;;;;5043760;28;20060;-74
2022/12/13 07:59:59;;;;;;;56.58;30.02;;;0.10;86.00;;;;;;5042680;28;20059;-74
2022/12/13 08:02:25;;;;;;;53.13;28.52;;;0.10;85.80;;;;;;5040739;28;20025;-74
2022/12/13 08:04:51;;;;;;;69.95;30.70;;;0.20;85.90;;;;;;5039574;28;20033;-74
2022/12/13 08:07:16;;;;;;;55.03;28.63;;;0.20;86.10;;;;;;5039114;28;20074;-73
2022/12/13 08:09:42;;;;;;;58.05;28.75;;;0.30;86.50;;;;;;5020334;28;20387;-74
2022/12/13 08:12:08;;;;;;;52.88;29.05;;;0.30;86.40;;;;;;5040444;28;20082;-74
2022/12/13 08:14:33;;;;;;;60.95;31.23;;;0.40;86.40;;;;;;5039562;28;20123;-74
2022/12/13 08:17:00;;;;;;;50.67;27.65;;;0.50;86.30;;;;;;5038596;28;20097;-73
2022/12/13 08:19:26;;;;;;;52.83;28.40;;;0.50;86.30;;;;;;5039700;28;20515;-73
2022/12/13 08:21:52;;;;;;;53.17;29.02;;;0.60;86.30;;;;;;5039890;28;20108;-73
2022/12/13 08:24:18;;;;;;;52.47;28.15;;;0.60;86.40;;;;;;5040491;28;20021;-74
2022/12/13 08:26:44;;;;;;;55.45;29.80;;;0.70;86.70;;;;;;5047111;28;20033;-75
2022/12/13 08:29:12;;;;;;;53.17;27.90;;;0.70;86.60;;;;;;5033325;28;20032;-75
2022/12/13 08:31:40;;;;;;;53.05;28.95;;;0.70;86.70;;;;;;5047338;28;20115;-73
2022/12/13 08:34:07;;;;;;;53.25;29.15;;;0.80;86.70;;;;;;5043245;28;20487;-74
2022/12/13 08:36:33;;;;;;;59.40;30.95;;;1.00;86.90;;;;;;5047650;28;20043;-74
2022/12/13 08:39:01;;;;;;;53.75;31.33;;;1.50;86.50;;;;;;5043811;28;20034;-74
2022/12/13 08:41:28;;;;;;;53.35;29.58;;;2.40;85.20;;;;;;5044288;28;20135;-75
2022/12/13 08:43:54;;;;;;;32.80;17.15;;;3.20;80.80;;;;;;5048781;28;20041;-73
2022/12/13 08:46:20;;;;;;;42.60;26.80;;;3.90;80.10;;;;;;5049408;28;20087;-74
2022/12/13 08:48:46;;;;;;;43.72;25.60;;;4.00;81.60;;;;;;5047331;28;20033;-74
2022/12/13 08:51:16;;;;;;;44.67;26.85;;;3.60;78.40;;;;;;5049527;28;20483;-73
2022/12/13 08:53:42;;;;;;;43.88;25.90;;;3.40;78.30;;;;;;5048758;28;20020;-74
2022/12/13 08:56:10;;;;;;;44.40;26.45;;;3.70;78.80;;;;;;5050008;28;20145;-74
2022/12/13 08:58:37;;;;;;;39.72;23.45;;;4.30;77.00;;;;;;5030951;28;20033;-73
2022/12/13 09:01:09;;;;;;;43.15;25.85;;;5.10;73.90;;;;;;5050454;28;20037;-74
2022/12/13 09:03:36;;;;;;;38.10;21.88;;;5.70;71.00;;;;;;5030294;28;20079;-74
2022/12/13 09:06:20;;;;;;;40.22;26.23;;;6.40;68.70;;;;;;5043712;28;20032;-74
2022/12/13 09:08:46;;;;;;;35.13;22.08;;;6.90;65.20;;;;;;5046516;28;20033;-73
2022/12/13 09:11:11;;;;;;;39.25;24.70;;;7.40;64.60;;;;;;5050898;28;20498;-74
2022/12/13 09:13:38;;;;;;;39.75;26.38;;;7.60;64.20;;;;;;5043709;28;20067;-73
2022/12/13 09:16:11;;;;;;;41.00;24.40;;;7.70;60.60;;;;;;5051298;28;20024;-74
2022/12/13 09:18:37;;;;;;;42.55;27.17;;;8.00;59.40;;;;;;5027808;28;20040;-73
2022/12/13 09:21:11;;;;;;;40.90;28.02;;;8.20;58.00;;;;;;5051949;28;20025;-76
2022/12/13 09:23:37;;;;;;;42.63;26.83;;;8.60;57.10;;;;;;5047739;28;20036;-73
2022/12/13 09:26:03;;;;;;;40.53;26.92;;;8.80;55.20;;;;;;5039818;28;20047;-74
2022/12/13 09:28:29;;;;;;;38.20;26.48;;;9.00;55.30;;;;;;5023999;28;20475;-72
2022/12/13 09:30:56;;;;;;;37.65;25.48;;;9.00;54.90;;;;;;5048791;28;20614;-73
2022/12/13 09:33:22;;;;;;;36.83;25.05;;;9.00;55.40;;;;;;5046610;28;20021;-73
2022/12/13 09:35:48;;;;;;;40.15;26.67;;;8.80;55.20;;;;;;5048156;28;20033;-73
2022/12/13 09:38:15;;;;;;;41.50;25.58;;;8.70;55.60;;;;;;5049149;28;20067;-73
2022/12/13 09:40:44;;;;;;;42.97;28.02;;;8.70;56.50;;;;;;5050231;28;20025;-74
2022/12/13 09:43:22;;;;;;;37.22;25.38;;;8.70;54.90;;;;;;5048428;28;20048;-73
2022/12/13 09:45:49;;;;;;;40.78;26.45;;;8.60;55.70;;;;;;5040651;28;20483;-72
2022/12/13 09:48:20;;;;;;;39.78;27.08;;;8.30;55.70;;;;;;5050303;28;20105;-73
2022/12/13 09:50:47;;;;;;;46.17;28.63;;;7.90;56.60;;;;;;5029202;28;20032;-73
2022/12/13 09:53:15;;;;;;;39.38;25.88;;;7.70;56.60;;;;;;5047687;28;20387;-72
2022/12/13 09:55:44;;;;;;;42.17;27.58;;;7.80;56.80;;;;;;5047231;28;20025;-74
2022/12/13 09:58:30;;;;;;;35.17;23.25;;;7.70;56.80;;;;;;5049224;28;20051;-73
2022/12/13 10:00:57;;;;;;;33.95;22.63;;;7.80;57.60;;;;;;5047244;28;20032;-73
2022/12/13 10:03:24;;;;;;;40.40;25.92;;;7.90;56.80;;;;;;5049298;28;20017;-73
2022/12/13 10:06:11;;;;;;;34.72;23.45;;;7.80;56.70;;;;;;5044025;28;20026;-73
2022/12/13 10:08:59;;;;;;;36.88;24.05;;;7.90;57.10;;;;;;5040599;28;20045;-72
2022/12/13 10:11:26;;;;;;;34.92;23.58;;;7.90;56.90;;;;;;5036882;28;20108;-71
2022/12/13 10:14:04;;;;;;;32.35;21.23;;;8.00;56.40;;;;;;5044037;28;20040;-72
2022/12/13 10:16:35;;;;;;;37.67;25.38;;;7.70;57.40;;;;;;5042002;28;20044;-72
2022/12/13 10:19:23;;;;;;;40.58;26.58;;;7.40;57.30;;;;;;5040371;28;20060;-74
2022/12/13 10:21:50;;;;;;;36.38;24.83;;;7.60;57.50;;;;;;5018021;28;20037;-73
2022/12/13 10:24:26;;;;;;;43.05;27.60;;;8.10;56.70;;;;;;5040517;28;20055;-72
2022/12/13 10:26:52;;;;;;;37.45;25.45;;;8.10;55.50;;;;;;5042792;28;20025;-73
2022/12/13 10:29:18;;;;;;;38.88;25.80;;;8.00;55.30;;;;;;5041265;28;20025;-73
2022/12/13 10:31:50;;;;;;;38.85;25.30;;;7.70;55.60;;;;;;5041199;28;20025;-74
2022/12/13 10:34:26;;;;;;;42.47;25.45;;;7.40;56.10;;;;;;5039765;28;20643;-74
2022/12/13 10:36:52;;;;;;;39.30;22.88;;;6.90;57.00;;;;;;5040162;28;20025;-74
2022/12/13 10:39:39;;;;;;;42.10;27.02;;;6.60;58.20;;;;;;5046159;28;20033;-74
2022/12/13 10:42:18;;;;;;;38.10;23.73;;;6.40;58.80;;;;;;5041334;28;20029;-73
2022/12/13 10:44:43;;;;;;;34.42;22.40;;;6.10;59.60;;;;;;5043013;28;20041;-75
2022/12/13 10:47:09;;;;;;;45.28;28.08;;;6.00;63.00;;;;;;5042113;28;20028;-73
2022/12/13 10:49:56;;;;;;;36.25;23.02;;;5.70;60.90;;;;;;5025449;28;20029;-72
2022/12/13 10:52:31;;;;;;;41.05;26.20;;;5.50;61.70;;;;;;5040616;28;20096;-74
2022/12/13 10:55:02;;;;;;;41.90;25.67;;;5.30;64.10;;;;;;5041375;28;20029;-73
2022/12/13 10:57:27;;;;;;;;;;;5.20;63.00;;;;;;5042380;28;20025;-75
2022/12/13 10:59:53;;;;;;;42.40;25.42;;;5.20;66.60;;;;;;5039823;28;19920;-74
2022/12/13 11:02:36;;;;;;;34.67;22.35;;;5.30;64.30;;;;;;5042381;28;20029;-73
2022/12/13 11:05:23;;;;;;;41.70;25.33;;;5.60;64.10;;;;;;5037657;28;20022;-74
2022/12/13 11:07:49;;;;;;;37.08;23.10;;;5.60;62.30;;;;;;5042501;28;20528;-73
2022/12/13 11:10:27;;;;;;;36.67;24.67;;;5.60;62.80;;;;;;5024506;28;20023;-74
2022/12/13 11:13:03;;;;;;;41.72;23.50;;;5.60;62.50;;;;;;5043499;28;20037;-74
2022/12/13 11:15:31;;;;;;;39.20;24.25;;;5.50;62.60;;;;;;5043036;28;20033;-74
2022/12/13 11:18:00;;;;;;;37.67;23.08;;;5.50;62.20;;;;;;5041806;28;20032;-73
2022/12/13 11:20:36;;;;;;;32.25;20.08;;;5.30;62.60;;;;;;5038538;28;20043;-73
2022/12/13 11:23:26;;;;;;;38.90;24.50;;;5.30;63.20;;;;;;5026483;28;20402;-74
2022/12/13 11:26:03;;;;;;;39.25;23.65;;;5.40;63.20;;;;;;5039499;28;20506;-73
2022/12/13 11:28:49;;;;;;;36.35;20.40;;;5.40;68.20;;;;;;5043609;28;20033;-73
2022/12/13 11:31:43;;;;;;;34.60;21.52;;;5.30;63.00;;;;;;5041165;28;20094;-74
2022/12/13 11:34:12;;;;;;;40.13;24.08;;;5.20;62.80;;;;;;5040111;28;20317;-74
2022/12/13 11:37:05;;;;;;;39.45;23.88;;;5.00;62.80;;;;;;5040248;28;20033;-74
2022/12/13 11:39:42;;;;;;;41.92;25.90;;;4.90;63.10;;;;;;5035883;28;20079;-74
2022/12/13 11:42:17;;;;;;;39.00;23.80;;;4.70;64.10;;;;;;5041402;28;20026;-73
2022/12/13 11:45:02;;;;;;;44.22;26.60;;;4.50;64.50;;;;;;5042583;28;20025;-74
2022/12/13 11:47:41;;;;;;;42.88;25.80;;;4.40;64.60;;;;;;5041133;28;20476;-73
2022/12/13 11:50:15;;;;;;;40.15;24.95;;;4.40;65.70;;;;;;5039029;28;20029;-74
2022/12/13 11:52:51;;;;;;;43.67;25.73;;;4.40;66.10;;;;;;5042493;28;20113;-73
2022/12/13 11:55:24;;;;;;;39.70;23.85;;;4.50;65.70;;;;;;5040287;28;20648;-74
2022/12/13 11:58:03;;;;;;;41.60;27.08;;;4.50;66.10;;;;;;5036700;28;20407;-74
2022/12/13 12:00:37;;;;;;;39.57;23.57;;;4.50;65.40;;;;;;5038943;28;20078;-74
2022/12/13 12:03:43;;;;;;;39.97;24.23;;;4.50;65.40;;;;;;5042674;28;20017;-73
2022/12/13 12:06:14;;;;;;;39.90;24.63;;;4.50;65.90;;;;;;5035357;28;20037;-73
2022/12/13 12:09:20;;;;;;;32.80;20.30;;;4.60;65.20;;;;;;5039711;28;20494;-74
2022/12/13 12:12:04;;;;;;;39.72;23.20;;;4.60;66.20;;;;;;5038470;28;20037;-74
2022/12/13 12:14:53;;;;;;;40.25;24.55;;;4.70;65.30;;;;;;5042174;28;20049;-73
2022/12/13 12:17:23;;;;;;;41.78;24.80;;;4.80;65.40;;;;;;5013371;28;20041;-73
2022/12/13 12:19:56;;;;;;;39.13;23.70;;;4.80;64.30;;;;;;5040730;28;20516;-74
2022/12/13 12:22:49;;;;;;;34.83;21.52;;;4.80;64.40;;;;;;5042418;28;20100;-73
2022/12/13 12:25:37;;;;;;;35.00;20.45;;;4.90;64.30;;;;;;5041673;28;20479;-73
2022/12/13 12:28:31;;;;;;;34.45;21.90;;;4.90;63.70;;;;;;5041489;28;20039;-73
2022/12/13 12:31:17;;;;;;;38.42;23.15;;;4.80;64.90;;;;;;5038017;28;20075;-73
2022/12/13 12:34:15;;;;;;;39.50;24.05;;;4.70;63.90;;;;;;5037009;28;20100;-74
2022/12/13 12:37:20;;;;;;;31.80;19.30;;;4.70;63.80;;;;;;5040963;28;20478;-73
2022/12/13 12:40:06;;;;;;;37.05;21.17;;;4.70;64.00;;;;;;5032506;28;20041;-73
2022/12/13 12:42:37;;;;;;;37.47;22.83;;;4.50;64.20;;;;;;5042029;28;20437;-73
2022/12/13 12:45:26;;;;;;;38.72;22.77;;;4.40;64.20;;;;;;5040967;28;20123;-75
2022/12/13 12:48:21;;;;;;;43.35;25.52;;;4.30;65.20;;;;;;5025964;28;20025;-74
2022/12/13 12:50:59;;;;;;;38.00;23.42;;;4.10;65.00;;;;;;5027047;28;20033;-74
2022/12/13 12:53:40;;;;;;;39.55;22.42;;;4.00;66.40;;;;;;5020156;28;20047;-74
2022/12/13 12:56:19;;;;;;;31.15;19.65;;;4.00;66.60;;;;;;5041159;28;20028;-74
2022/12/13 12:59:00;;;;;;;39.63;23.80;;;3.90;66.10;;;;;;5041674;28;20177;-74